Terminal Aerodrome Forecast
Issued by NWS Charleston, WV

Current Version | Previous Version | Graphics & Text | Print | Product List | Glossary On
Versions: 1 2 3 4 5 6 7 8 9 10 11 12 13 14 15 16 17 18 19 20 21 22 23 24 25
000
FTUS41 KRLX 050538
TAFCRW
TAF
KCRW 050538Z 0506/0606 30005KT 2SM -SHRA BR SCT008 BKN015
     FM050700 33005KT 4SM BR BKN008 BKN015
     FM051100 27006KT 5SM BR BKN030 OVC050
     FM051800 26005KT 5SM SHRA BR BKN015=

USA.gov is the U.S. government's official web portal to all federal, state and local government web resources and services.